sensor_id;sensor_type;location;lat;lon;timestamp;P1;durP1;ratioP1;P2;durP2;ratioP2
13720;SDS011;6932;51.438;5.470;2022-11-15T17:44:26;5.77;;;2.90;;
13720;SDS011;6932;51.438;5.470;2022-11-15T17:46:54;5.00;;;2.50;;
13720;SDS011;6932;51.438;5.470;2022-11-15T17:49:20;5.57;;;2.90;;
13720;SDS011;6932;51.438;5.470;2022-11-15T17:51:46;4.97;;;2.90;;
13720;SDS011;6932;51.438;5.470;2022-11-15T17:54:21;4.63;;;2.80;;
13720;SDS011;6932;51.438;5.470;2022-11-15T17:56:47;4.00;;;2.60;;
13720;SDS011;6932;51.438;5.470;2022-11-15T17:59:17;5.47;;;3.10;;
13720;SDS011;6932;51.438;5.470;2022-11-15T18:01:43;4.40;;;2.60;;
13720;SDS011;6932;51.438;5.470;2022-11-15T18:04:09;7.40;;;2.87;;
13720;SDS011;6932;51.438;5.470;2022-11-15T18:06:37;6.07;;;3.10;;
13720;SDS011;6932;51.438;5.470;2022-11-15T18:09:12;5.33;;;2.67;;
13720;SDS011;6932;51.438;5.470;2022-11-15T18:11:53;5.30;;;3.00;;
13720;SDS011;6932;51.438;5.470;2022-11-15T18:14:24;5.30;;;2.73;;
13720;SDS011;6932;51.438;5.470;2022-11-15T18:16:53;6.00;;;3.30;;
13720;SDS011;6932;51.438;5.470;2022-11-15T18:19:43;4.20;;;2.63;;
13720;SDS011;6932;51.438;5.470;2022-11-15T18:22:09;4.70;;;2.90;;
13720;SDS011;6932;51.438;5.470;2022-11-15T18:24:35;4.17;;;2.90;;
13720;SDS011;6932;51.438;5.470;2022-11-15T18:27:06;5.67;;;3.00;;
13720;SDS011;6932;51.438;5.470;2022-11-15T18:29:32;4.17;;;3.10;;
13720;SDS011;6932;51.438;5.470;2022-11-15T18:32:01;5.97;;;3.27;;
13720;SDS011;6932;51.438;5.470;2022-11-15T18:34:35;5.10;;;3.27;;
13720;SDS011;6932;51.438;5.470;2022-11-15T18:37:04;4.13;;;2.80;;
13720;SDS011;6932;51.438;5.470;2022-11-15T18:39:32;3.97;;;2.70;;
13720;SDS011;6932;51.438;5.470;2022-11-15T18:41:59;3.93;;;2.97;;
13720;SDS011;6932;51.438;5.470;2022-11-15T18:47:10;4.27;;;2.90;;
13720;SDS011;6932;51.438;5.470;2022-11-15T18:49:43;5.30;;;2.80;;
13720;SDS011;6932;51.438;5.470;2022-11-15T18:52:12;7.13;;;3.23;;
13720;SDS011;6932;51.438;5.470;2022-11-15T18:54:48;4.60;;;3.00;;
13720;SDS011;6932;51.438;5.470;2022-11-15T18:57:14;5.13;;;2.90;;
13720;SDS011;6932;51.438;5.470;2022-11-15T18:59:43;4.77;;;2.90;;
13720;SDS011;6932;51.438;5.470;2022-11-15T19:02:10;5.10;;;3.13;;
13720;SDS011;6932;51.438;5.470;2022-11-15T19:04:36;3.97;;;3.00;;
13720;SDS011;6932;51.438;5.470;2022-11-15T19:07:05;5.17;;;3.27;;
13720;SDS011;6932;51.438;5.470;2022-11-15T19:09:36;5.60;;;3.50;;
13720;SDS011;6932;51.438;5.470;2022-11-15T19:12:02;5.47;;;3.60;;
13720;SDS011;6932;51.438;5.470;2022-11-15T19:14:49;7.67;;;3.80;;
13720;SDS011;6932;51.438;5.470;2022-11-15T19:17:18;4.93;;;3.63;;
13720;SDS011;6932;51.438;5.470;2022-11-15T19:19:44;7.17;;;3.60;;
13720;SDS011;6932;51.438;5.470;2022-11-15T19:22:18;5.07;;;3.50;;
13720;SDS011;6932;51.438;5.470;2022-11-15T19:24:46;4.70;;;3.43;;
13720;SDS011;6932;51.438;5.470;2022-11-15T19:27:12;5.30;;;3.60;;
13720;SDS011;6932;51.438;5.470;2022-11-15T19:29:38;5.17;;;2.90;;
13720;SDS011;6932;51.438;5.470;2022-11-15T19:32:05;4.63;;;3.23;;
13720;SDS011;6932;51.438;5.470;2022-11-15T19:34:31;5.67;;;3.03;;
13720;SDS011;6932;51.438;5.470;2022-11-15T19:36:57;5.00;;;3.40;;
13720;SDS011;6932;51.438;5.470;2022-11-15T19:39:22;4.50;;;2.90;;
13720;SDS011;6932;51.438;5.470;2022-11-15T19:41:58;5.97;;;3.23;;
13720;SDS011;6932;51.438;5.470;2022-11-15T19:44:23;5.73;;;3.60;;
13720;SDS011;6932;51.438;5.470;2022-11-15T19:46:55;5.23;;;3.20;;
13720;SDS011;6932;51.438;5.470;2022-11-15T19:49:20;5.57;;;3.20;;
13720;SDS011;6932;51.438;5.470;2022-11-15T19:51:46;6.07;;;3.80;;
13720;SDS011;6932;51.438;5.470;2022-11-15T19:54:18;4.40;;;3.23;;
13720;SDS011;6932;51.438;5.470;2022-11-15T19:56:56;5.50;;;3.40;;
13720;SDS011;6932;51.438;5.470;2022-11-15T19:59:22;6.53;;;3.77;;
13720;SDS011;6932;51.438;5.470;2022-11-15T20:01:50;6.33;;;3.60;;
13720;SDS011;6932;51.438;5.470;2022-11-15T20:04:19;5.27;;;3.63;;
13720;SDS011;6932;51.438;5.470;2022-11-15T20:06:45;5.57;;;3.47;;
13720;SDS011;6932;51.438;5.470;2022-11-15T20:09:11;5.03;;;3.30;;
13720;SDS011;6932;51.438;5.470;2022-11-15T20:11:39;5.43;;;3.80;;
13720;SDS011;6932;51.438;5.470;2022-11-15T20:14:11;5.93;;;3.87;;
13720;SDS011;6932;51.438;5.470;2022-11-15T20:17:01;5.77;;;3.60;;
13720;SDS011;6932;51.438;5.470;2022-11-15T20:19:29;6.80;;;3.93;;
13720;SDS011;6932;51.438;5.470;2022-11-15T20:22:09;5.13;;;3.73;;
13720;SDS011;6932;51.438;5.470;2022-11-15T20:25:42;6.00;;;3.73;;
13720;SDS011;6932;51.438;5.470;2022-11-15T20:29:15;5.67;;;3.97;;
13720;SDS011;6932;51.438;5.470;2022-11-15T20:31:54;5.60;;;4.10;;
13720;SDS011;6932;51.438;5.470;2022-11-15T20:34:41;7.00;;;4.30;;
13720;SDS011;6932;51.438;5.470;2022-11-15T20:37:12;7.10;;;4.43;;
13720;SDS011;6932;51.438;5.470;2022-11-15T20:39:38;6.23;;;4.50;;
13720;SDS011;6932;51.438;5.470;2022-11-15T20:42:15;6.83;;;4.43;;
13720;SDS011;6932;51.438;5.470;2022-11-15T20:44:42;6.60;;;4.70;;
13720;SDS011;6932;51.438;5.470;2022-11-15T20:47:15;7.40;;;4.47;;
13720;SDS011;6932;51.438;5.470;2022-11-15T20:49:44;5.87;;;4.23;;
13720;SDS011;6932;51.438;5.470;2022-11-15T20:52:10;7.67;;;4.73;;
13720;SDS011;6932;51.438;5.470;2022-11-15T20:54:44;7.07;;;4.80;;
13720;SDS011;6932;51.438;5.470;2022-11-15T20:57:17;6.33;;;4.10;;
13720;SDS011;6932;51.438;5.470;2022-11-15T20:59:46;6.27;;;4.50;;
13720;SDS011;6932;51.438;5.470;2022-11-15T21:02:12;6.13;;;4.30;;
13720;SDS011;6932;51.438;5.470;2022-11-15T21:04:41;6.27;;;4.50;;
13720;SDS011;6932;51.438;5.470;2022-11-15T21:07:07;6.03;;;4.30;;
13720;SDS011;6932;51.438;5.470;2022-11-15T21:09:33;5.87;;;4.20;;
13720;SDS011;6932;51.438;5.470;2022-11-15T21:12:17;8.23;;;4.73;;
13720;SDS011;6932;51.438;5.470;2022-11-15T21:14:43;6.70;;;4.30;;
13720;SDS011;6932;51.438;5.470;2022-11-15T21:17:12;6.17;;;4.60;;
13720;SDS011;6932;51.438;5.470;2022-11-15T21:19:40;8.00;;;4.70;;
13720;SDS011;6932;51.438;5.470;2022-11-15T21:22:08;7.07;;;4.67;;
13720;SDS011;6932;51.438;5.470;2022-11-15T21:24:39;7.37;;;4.70;;
13720;SDS011;6932;51.438;5.470;2022-11-15T21:27:05;6.43;;;4.40;;
13720;SDS011;6932;51.438;5.470;2022-11-15T21:29:38;8.23;;;4.90;;
13720;SDS011;6932;51.438;5.470;2022-11-15T21:32:24;7.30;;;4.67;;
13720;SDS011;6932;51.438;5.470;2022-11-15T21:35:02;7.87;;;4.67;;
13720;SDS011;6932;51.438;5.470;2022-11-15T21:37:31;5.90;;;3.97;;
13720;SDS011;6932;51.438;5.470;2022-11-15T21:40:17;8.00;;;4.90;;
13720;SDS011;6932;51.438;5.470;2022-11-15T21:42:49;6.30;;;4.57;;
13720;SDS011;6932;51.438;5.470;2022-11-15T21:45:35;6.67;;;4.17;;
13720;SDS011;6932;51.438;5.470;2022-11-15T21:48:03;6.60;;;4.53;;
13720;SDS011;6932;51.438;5.470;2022-11-15T21:50:34;7.07;;;4.90;;
13720;SDS011;6932;51.438;5.470;2022-11-15T21:53:03;5.83;;;4.20;;
13720;SDS011;6932;51.438;5.470;2022-11-15T21:55:43;7.57;;;4.70;;
13720;SDS011;6932;51.438;5.470;2022-11-15T21:58:19;6.53;;;4.50;;
13720;SDS011;6932;51.438;5.470;2022-11-15T22:00:46;5.93;;;4.40;;
13720;SDS011;6932;51.438;5.470;2022-11-15T22:03:34;8.17;;;4.30;;
13720;SDS011;6932;51.438;5.470;2022-11-15T22:06:00;7.23;;;4.27;;
13720;SDS011;6932;51.438;5.470;2022-11-15T22:08:31;5.83;;;4.40;;
13720;SDS011;6932;51.438;5.470;2022-11-15T22:11:00;6.87;;;4.23;;
13720;SDS011;6932;51.438;5.470;2022-11-15T22:13:30;6.33;;;4.40;;
13720;SDS011;6932;51.438;5.470;2022-11-15T22:15:56;5.67;;;4.37;;
13720;SDS011;6932;51.438;5.470;2022-11-15T22:18:22;5.47;;;4.27;;
13720;SDS011;6932;51.438;5.470;2022-11-15T22:20:55;5.93;;;4.30;;
13720;SDS011;6932;51.438;5.470;2022-11-15T22:23:29;6.50;;;4.40;;
13720;SDS011;6932;51.438;5.470;2022-11-15T22:26:04;6.23;;;4.23;;
13720;SDS011;6932;51.438;5.470;2022-11-15T22:28:47;6.57;;;4.50;;
13720;SDS011;6932;51.438;5.470;2022-11-15T22:31:18;8.70;;;4.60;;
13720;SDS011;6932;51.438;5.470;2022-11-15T22:33:47;5.93;;;4.20;;
13720;SDS011;6932;51.438;5.470;2022-11-15T22:36:25;6.30;;;4.17;;
13720;SDS011;6932;51.438;5.470;2022-11-15T22:39:14;6.40;;;4.20;;
13720;SDS011;6932;51.438;5.470;2022-11-15T22:41:42;5.90;;;4.17;;
13720;SDS011;6932;51.438;5.470;2022-11-15T22:44:25;5.80;;;4.13;;
13720;SDS011;6932;51.438;5.470;2022-11-15T22:47:02;7.17;;;4.00;;
13720;SDS011;6932;51.438;5.470;2022-11-15T22:49:28;6.03;;;3.97;;
13720;SDS011;6932;51.438;5.470;2022-11-15T22:52:01;6.70;;;3.90;;
13720;SDS011;6932;51.438;5.470;2022-11-15T22:54:27;5.80;;;4.20;;
13720;SDS011;6932;51.438;5.470;2022-11-15T22:57:07;5.43;;;3.80;;
13720;SDS011;6932;51.438;5.470;2022-11-15T22:59:35;6.67;;;4.33;;
13720;SDS011;6932;51.438;5.470;2022-11-15T23:02:02;5.37;;;3.83;;
13720;SDS011;6932;51.438;5.470;2022-11-15T23:04:44;5.30;;;3.87;;
13720;SDS011;6932;51.438;5.470;2022-11-15T23:07:29;5.63;;;4.03;;
13720;SDS011;6932;51.438;5.470;2022-11-15T23:09:56;5.40;;;3.60;;
13720;SDS011;6932;51.438;5.470;2022-11-15T23:12:47;5.30;;;3.80;;
13720;SDS011;6932;51.438;5.470;2022-11-15T23:15:47;5.77;;;4.10;;
13720;SDS011;6932;51.438;5.470;2022-11-15T23:18:35;5.47;;;3.70;;
13720;SDS011;6932;51.438;5.470;2022-11-15T23:21:13;5.53;;;3.80;;
13720;SDS011;6932;51.438;5.470;2022-11-15T23:24:07;5.30;;;3.90;;
13720;SDS011;6932;51.438;5.470;2022-11-15T23:26:40;5.20;;;3.70;;
13720;SDS011;6932;51.438;5.470;2022-11-15T23:29:11;5.60;;;4.00;;
13720;SDS011;6932;51.438;5.470;2022-11-15T23:32:08;6.73;;;4.00;;
13720;SDS011;6932;51.438;5.470;2022-11-15T23:35:29;5.47;;;4.00;;
13720;SDS011;6932;51.438;5.470;2022-11-15T23:38:22;6.37;;;3.83;;
13720;SDS011;6932;51.438;5.470;2022-11-15T23:41:22;6.00;;;3.77;;
13720;SDS011;6932;51.438;5.470;2022-11-15T23:44:04;5.53;;;3.93;;
13720;SDS011;6932;51.438;5.470;2022-11-15T23:46:54;5.37;;;3.90;;
13720;SDS011;6932;51.438;5.470;2022-11-15T23:49:25;4.83;;;3.77;;
13720;SDS011;6932;51.438;5.470;2022-11-15T23:51:50;5.67;;;3.90;;
13720;SDS011;6932;51.438;5.470;2022-11-15T23:54:22;6.17;;;3.93;;
13720;SDS011;6932;51.438;5.470;2022-11-15T23:56:50;5.10;;;3.90;;
13720;SDS011;6932;51.438;5.470;2022-11-15T23:59:36;7.13;;;3.83;;
